createdAt,value
2023-03-02T00:02:21.162Z,507.00
2023-03-02T00:06:21.198Z,506.00
2023-03-02T00:10:21.355Z,506.00
2023-03-02T00:14:21.506Z,507.00
2023-03-02T00:18:22.076Z,508.00
2023-03-02T00:22:21.768Z,509.00
2023-03-02T00:26:21.944Z,505.00
2023-03-02T00:30:22.063Z,507.00
2023-03-02T00:34:22.215Z,504.00
2023-03-02T00:38:22.353Z,508.00
2023-03-02T00:42:22.519Z,503.00
2023-03-02T00:46:22.748Z,504.00
2023-03-02T00:50:22.828Z,502.00
2023-03-02T00:54:22.999Z,507.00
2023-03-02T00:58:23.124Z,508.00
2023-03-02T01:02:23.404Z,505.00
2023-03-02T01:06:23.481Z,503.00
2023-03-02T01:10:23.593Z,508.00
2023-03-02T01:14:23.887Z,503.00
2023-03-02T01:18:23.963Z,507.00
2023-03-02T01:22:24.148Z,506.00
2023-03-02T01:26:25.139Z,504.00
2023-03-02T01:30:24.504Z,504.00
2023-03-02T01:34:24.660Z,510.00
2023-03-02T01:38:24.899Z,507.00
2023-03-02T01:42:25.039Z,504.00
2023-03-02T01:46:25.196Z,511.00
2023-03-02T01:50:25.380Z,510.00
2023-03-02T01:54:25.550Z,508.00
2023-03-02T01:58:25.781Z,508.00
2023-03-02T02:02:26.012Z,506.00
2023-03-02T02:06:26.156Z,504.00
2023-03-02T02:10:26.355Z,503.00
2023-03-02T02:14:26.576Z,511.00
2023-03-02T02:18:26.794Z,504.00
2023-03-02T02:22:26.993Z,507.00
2023-03-02T02:26:27.644Z,503.00
2023-03-02T02:30:27.405Z,506.00
2023-03-02T02:34:27.601Z,504.00
2023-03-02T02:38:27.800Z,503.00
2023-03-02T02:42:27.768Z,504.00
2023-03-02T02:46:27.754Z,504.00
2023-03-02T02:50:27.688Z,503.00
2023-03-02T02:54:27.668Z,504.00
2023-03-02T02:58:27.637Z,505.00
2023-03-02T03:02:27.598Z,505.00
2023-03-02T03:06:27.539Z,503.00
2023-03-02T03:10:27.503Z,506.00
2023-03-02T03:14:27.486Z,505.00
2023-03-02T03:18:27.443Z,506.00
2023-03-02T03:22:27.710Z,502.00
2023-03-02T03:26:27.639Z,511.00
2023-03-02T03:30:27.564Z,505.00
2023-03-02T03:34:27.519Z,512.00
2023-03-02T03:38:27.625Z,510.00
2023-03-02T03:42:27.473Z,502.00
2023-03-02T03:46:27.507Z,505.00
2023-03-02T03:50:27.387Z,502.00
2023-03-02T03:54:27.362Z,503.00
2023-03-02T03:58:27.337Z,500.00
2023-03-02T04:02:27.530Z,503.00
2023-03-02T04:06:27.411Z,507.00
2023-03-02T04:10:27.384Z,507.00
2023-03-02T04:14:27.368Z,509.00
2023-03-02T04:18:27.316Z,507.00
2023-03-02T04:22:27.287Z,509.00
2023-03-02T04:26:27.237Z,507.00
2023-03-02T04:30:27.214Z,508.00
2023-03-02T04:34:27.171Z,501.00
2023-03-02T04:38:27.147Z,504.00
2023-03-02T04:42:27.142Z,503.00
2023-03-02T04:46:27.358Z,508.00
2023-03-02T04:50:27.550Z,509.00
2023-03-02T04:54:27.800Z,501.00
2023-03-02T04:58:28.004Z,507.00
2023-03-02T05:02:28.225Z,509.00
2023-03-02T05:06:28.365Z,506.00
2023-03-02T05:10:28.535Z,501.00
2023-03-02T05:14:28.684Z,510.00
2023-03-02T05:18:28.780Z,512.00
2023-03-02T05:22:28.896Z,508.00
2023-03-02T05:26:29.028Z,505.00
2023-03-02T05:30:29.114Z,502.00
2023-03-02T05:34:29.297Z,505.00
2023-03-02T05:38:29.480Z,508.00
2023-03-02T05:42:29.656Z,505.00
2023-03-02T05:46:29.917Z,513.00
2023-03-02T05:50:30.007Z,508.00
2023-03-02T05:54:30.161Z,509.00
2023-03-02T05:58:30.284Z,508.00
2023-03-02T06:02:30.328Z,508.00
2023-03-02T06:06:32.318Z,506.00
2023-03-02T06:10:30.389Z,503.00
2023-03-02T06:14:30.346Z,506.00
2023-03-02T06:18:30.318Z,506.00
2023-03-02T06:22:30.273Z,504.00
2023-03-02T06:26:30.285Z,506.00
2023-03-02T06:30:30.196Z,511.00
2023-03-02T06:34:30.149Z,507.00
2023-03-02T06:38:30.110Z,507.00
2023-03-02T06:42:30.220Z,545.00
2023-03-02T06:46:30.160Z,617.00
2023-03-02T06:50:30.269Z,658.00
2023-03-02T06:54:30.254Z,818.00
2023-03-02T06:58:30.240Z,786.00
2023-03-02T07:02:30.288Z,787.00
2023-03-02T07:06:29.960Z,834.00
2023-03-02T07:10:30.294Z,959.00
2023-03-02T07:14:30.030Z,1011.00
2023-03-02T07:18:30.245Z,1076.00
2023-03-02T07:22:30.015Z,1093.00
2023-03-02T07:26:30.220Z,1137.00
2023-03-02T07:30:30.391Z,1156.00
2023-03-02T07:34:30.129Z,1195.00
2023-03-02T07:38:30.090Z,1244.00
2023-03-02T07:42:30.281Z,1537.00
2023-03-02T07:46:30.333Z,1283.00
2023-03-02T07:50:30.272Z,1275.00
2023-03-02T07:54:29.945Z,1303.00
2023-03-02T07:58:29.907Z,1234.00
2023-03-02T08:02:30.307Z,1211.00
2023-03-02T08:06:29.818Z,1221.00
2023-03-02T08:10:29.773Z,1200.00
2023-03-02T08:14:29.738Z,1192.00
2023-03-02T08:18:29.700Z,1218.00
2023-03-02T08:22:29.794Z,1224.00
2023-03-02T08:26:29.797Z,1218.00
2023-03-02T08:30:29.781Z,1233.00
2023-03-02T08:34:29.720Z,1265.00
2023-03-02T08:38:29.801Z,1251.00
2023-03-02T08:42:29.773Z,1301.00
2023-03-02T08:46:29.800Z,1270.00
2023-03-02T08:50:29.768Z,1213.00
2023-03-02T08:54:29.628Z,1185.00
2023-03-02T08:58:29.599Z,1152.00
2023-03-02T09:02:29.612Z,1132.00
2023-03-02T09:06:29.568Z,1081.00
2023-03-02T09:10:29.851Z,1073.00
2023-03-02T09:14:29.466Z,1042.00
2023-03-02T09:18:29.425Z,1029.00
2023-03-02T09:22:29.824Z,1009.00
2023-03-02T09:26:29.329Z,1019.00
2023-03-02T09:30:29.322Z,1009.00
2023-03-02T09:34:29.275Z,990.00
2023-03-02T09:38:29.304Z,771.00
2023-03-02T09:42:41.614Z,829.00
2023-03-02T09:46:30.332Z,620.00
2023-03-02T09:50:29.154Z,594.00
2023-03-02T09:54:29.357Z,537.00
2023-03-02T09:58:29.343Z,565.00
2023-03-02T10:02:29.358Z,565.00
2023-03-02T10:06:29.505Z,588.00
2023-03-02T10:10:29.573Z,609.00
2023-03-02T10:14:29.657Z,623.00
2023-03-02T10:18:29.882Z,626.00
2023-03-02T10:22:29.550Z,661.00
2023-03-02T10:26:29.530Z,717.00
2023-03-02T10:30:29.912Z,756.00
2023-03-02T10:34:29.851Z,799.00
2023-03-02T10:38:29.841Z,828.00
2023-03-02T10:42:29.533Z,890.00
2023-03-02T10:46:29.884Z,860.00
2023-03-02T10:50:29.346Z,867.00
2023-03-02T10:54:29.261Z,820.00
2023-03-02T10:58:29.255Z,791.00
2023-03-02T11:02:29.187Z,772.00
2023-03-02T11:06:29.163Z,750.00
2023-03-02T11:10:29.387Z,721.00
2023-03-02T11:14:29.139Z,704.00
2023-03-02T11:18:29.066Z,670.00
2023-03-02T11:22:29.038Z,671.00
2023-03-02T11:26:29.008Z,659.00
2023-03-02T11:30:29.374Z,657.00
2023-03-02T11:34:29.095Z,645.00
2023-03-02T11:38:29.385Z,654.00
2023-03-02T11:42:29.915Z,642.00
2023-03-02T11:46:29.617Z,641.00
2023-03-02T11:50:29.703Z,641.00
2023-03-02T11:54:29.860Z,638.00
2023-03-02T11:58:30.021Z,634.00
2023-03-02T12:02:30.149Z,631.00
2023-03-02T12:06:30.367Z,635.00
2023-03-02T12:10:30.444Z,625.00
2023-03-02T12:14:30.890Z,622.00
2023-03-02T12:18:30.749Z,622.00
2023-03-02T12:22:30.889Z,620.00
2023-03-02T12:26:31.485Z,619.00
2023-03-02T12:30:31.409Z,613.00
2023-03-02T12:34:31.410Z,616.00
2023-03-02T12:38:31.976Z,610.00
2023-03-02T12:42:31.598Z,598.00
2023-03-02T12:46:32.138Z,604.00
2023-03-02T12:50:31.902Z,596.00
2023-03-02T12:54:32.071Z,543.00
2023-03-02T12:58:32.030Z,562.00
2023-03-02T13:02:32.448Z,540.00
2023-03-02T13:06:32.039Z,543.00
2023-03-02T13:10:31.954Z,562.00
2023-03-02T13:14:31.861Z,556.00
2023-03-02T13:18:32.035Z,554.00
2023-03-02T13:22:32.519Z,552.00
2023-03-02T13:26:32.326Z,554.00
2023-03-02T13:30:31.807Z,571.00
2023-03-02T13:34:31.681Z,570.00
2023-03-02T13:38:31.680Z,568.00
2023-03-02T13:42:31.940Z,564.00
2023-03-02T13:46:32.159Z,562.00
2023-03-02T13:50:31.957Z,535.00
2023-03-02T13:54:32.022Z,487.00
2023-03-02T13:58:32.141Z,502.00
2023-03-02T14:02:32.225Z,502.00
2023-03-02T14:06:32.677Z,551.00
2023-03-02T14:10:32.263Z,706.00
2023-03-02T14:14:32.365Z,773.00
2023-03-02T14:18:32.936Z,1102.00
2023-03-02T14:22:32.638Z,1141.00
2023-03-02T14:26:32.694Z,1226.00
2023-03-02T14:30:32.720Z,1173.00
2023-03-02T14:34:32.692Z,1240.00
2023-03-02T14:38:32.636Z,1230.00
2023-03-02T14:42:32.955Z,1222.00
2023-03-02T14:46:32.612Z,1202.00
2023-03-02T14:50:32.583Z,1204.00
2023-03-02T14:54:32.487Z,1198.00
2023-03-02T14:58:32.495Z,1189.00
2023-03-02T15:02:32.623Z,1189.00
2023-03-02T15:06:32.649Z,1188.00
2023-03-02T15:10:32.365Z,1165.00
2023-03-02T15:14:32.486Z,1179.00
2023-03-02T15:18:32.483Z,1163.00
2023-03-02T15:22:32.274Z,1158.00
2023-03-02T15:26:32.383Z,1166.00
2023-03-02T15:30:32.568Z,1161.00
2023-03-02T15:34:32.742Z,1151.00
2023-03-02T15:38:32.917Z,1145.00
2023-03-02T15:42:33.134Z,1136.00
2023-03-02T15:46:33.319Z,1145.00
2023-03-02T15:50:33.447Z,1134.00
2023-03-02T15:54:33.631Z,1134.00
2023-03-02T15:58:33.834Z,1116.00
2023-03-02T16:02:34.103Z,1112.00
2023-03-02T16:06:34.259Z,1111.00
2023-03-02T16:10:34.435Z,1101.00
2023-03-02T16:14:34.603Z,1096.00
2023-03-02T16:18:34.834Z,1083.00
2023-03-02T16:22:35.023Z,1081.00
2023-03-02T16:26:35.254Z,1090.00
2023-03-02T16:30:35.457Z,1071.00
2023-03-02T16:34:35.534Z,1071.00
2023-03-02T16:38:35.384Z,1075.00
2023-03-02T16:42:35.356Z,1067.00
2023-03-02T16:46:35.303Z,1047.00
2023-03-02T16:50:35.274Z,1055.00
2023-03-02T16:54:35.517Z,1034.00
2023-03-02T16:58:35.195Z,1034.00
2023-03-02T17:02:35.220Z,1013.00
2023-03-02T17:06:35.141Z,1001.00
2023-03-02T17:10:35.206Z,997.00
2023-03-02T17:14:35.175Z,981.00
2023-03-02T17:18:35.113Z,932.00
2023-03-02T17:22:35.086Z,954.00
2023-03-02T17:26:35.057Z,924.00
2023-03-02T17:30:34.992Z,922.00
2023-03-02T17:34:34.975Z,943.00
2023-03-02T17:38:34.935Z,908.00
2023-03-02T17:42:34.886Z,936.00
2023-03-02T17:46:35.002Z,922.00
2023-03-02T17:50:34.822Z,912.00
2023-03-02T17:54:34.874Z,891.00
2023-03-02T17:58:44.615Z,891.00
2023-03-02T18:02:36.072Z,874.00
2023-03-02T18:06:35.019Z,889.00
2023-03-02T18:10:35.008Z,881.00
2023-03-02T18:14:35.197Z,901.00
2023-03-02T18:18:35.301Z,887.00
2023-03-02T18:22:35.397Z,871.00
2023-03-02T18:26:35.521Z,864.00
2023-03-02T18:30:35.633Z,890.00
2023-03-02T18:34:35.676Z,886.00
2023-03-02T18:38:35.828Z,868.00
2023-03-02T18:42:35.928Z,873.00
2023-03-02T18:46:35.946Z,866.00
2023-03-02T18:50:35.940Z,849.00
2023-03-02T18:54:36.000Z,857.00
2023-03-02T18:58:36.014Z,839.00
2023-03-02T19:02:35.999Z,853.00
2023-03-02T19:06:35.975Z,834.00
2023-03-02T19:10:35.953Z,823.00
2023-03-02T19:14:35.969Z,818.00
2023-03-02T19:18:35.908Z,801.00
2023-03-02T19:22:35.941Z,803.00
2023-03-02T19:26:35.878Z,783.00
2023-03-02T19:30:35.862Z,777.00
2023-03-02T19:34:35.844Z,783.00
2023-03-02T19:38:35.835Z,765.00
2023-03-02T19:42:35.814Z,770.00
2023-03-02T19:46:35.821Z,749.00
2023-03-02T19:50:35.842Z,750.00
2023-03-02T19:54:35.814Z,742.00
2023-03-02T19:58:35.792Z,729.00
2023-03-02T20:02:35.964Z,717.00
2023-03-02T20:06:35.872Z,716.00
2023-03-02T20:10:35.903Z,712.00
2023-03-02T20:14:35.906Z,705.00
2023-03-02T20:18:35.939Z,695.00
2023-03-02T20:22:35.979Z,708.00
2023-03-02T20:26:36.051Z,696.00
2023-03-02T20:30:36.129Z,689.00
2023-03-02T20:34:36.129Z,688.00
2023-03-02T20:38:36.210Z,674.00
2023-03-02T20:42:36.285Z,671.00
2023-03-02T20:46:36.364Z,670.00
2023-03-02T20:50:36.411Z,664.00
2023-03-02T20:54:36.481Z,659.00
2023-03-02T20:58:36.570Z,659.00
2023-03-02T21:02:36.590Z,658.00
2023-03-02T21:06:36.683Z,652.00
2023-03-02T21:10:36.746Z,656.00
2023-03-02T21:14:36.827Z,653.00
2023-03-02T21:18:36.919Z,653.00
2023-03-02T21:22:37.019Z,643.00
2023-03-02T21:26:37.076Z,647.00
2023-03-02T21:30:37.193Z,647.00
2023-03-02T21:34:38.523Z,642.00
2023-03-02T21:38:37.390Z,647.00
2023-03-02T21:42:37.532Z,640.00
2023-03-02T21:46:37.763Z,635.00
2023-03-02T21:50:37.770Z,639.00
2023-03-02T21:54:37.927Z,636.00
2023-03-02T21:58:38.064Z,633.00
2023-03-02T22:02:38.157Z,638.00
2023-03-02T22:06:38.288Z,629.00
2023-03-02T22:10:38.419Z,633.00
2023-03-02T22:14:38.546Z,628.00
2023-03-02T22:18:38.660Z,630.00
2023-03-02T22:22:38.810Z,627.00
2023-03-02T22:26:38.949Z,627.00
2023-03-02T22:30:39.091Z,623.00
2023-03-02T22:34:39.218Z,626.00
2023-03-02T22:38:39.377Z,626.00
2023-03-02T22:42:39.483Z,615.00
2023-03-02T22:46:39.753Z,621.00
2023-03-02T22:50:39.789Z,618.00
2023-03-02T22:54:39.849Z,618.00
2023-03-02T22:58:40.032Z,619.00
2023-03-02T23:02:40.137Z,614.00
2023-03-02T23:06:40.205Z,614.00
2023-03-02T23:10:40.727Z,616.00
2023-03-02T23:14:40.528Z,613.00
2023-03-02T23:18:40.592Z,610.00
2023-03-02T23:22:40.715Z,609.00
2023-03-02T23:26:40.850Z,611.00
2023-03-02T23:30:40.923Z,605.00
2023-03-02T23:34:41.083Z,610.00
2023-03-02T23:38:41.235Z,606.00
2023-03-02T23:42:41.307Z,606.00
2023-03-02T23:46:41.464Z,602.00
2023-03-02T23:50:41.645Z,600.00
2023-03-02T23:54:41.772Z,605.00
2023-03-02T23:58:41.905Z,600.00
